sensor_id;sensor_type;location;lat;lon;timestamp;P1;durP1;ratioP1;P2;durP2;ratioP2
4508;SDS011;2267;48.816;9.230;2024-02-21T00:00:33;11.13;;;7.67;;
4508;SDS011;2267;48.816;9.230;2024-02-21T00:03:00;9.40;;;6.97;;
4508;SDS011;2267;48.816;9.230;2024-02-21T00:05:28;9.30;;;7.03;;
4508;SDS011;2267;48.816;9.230;2024-02-21T00:07:56;8.93;;;7.10;;
4508;SDS011;2267;48.816;9.230;2024-02-21T00:10:25;12.20;;;7.60;;
4508;SDS011;2267;48.816;9.230;2024-02-21T00:12:52;8.37;;;6.53;;
4508;SDS011;2267;48.816;9.230;2024-02-21T00:15:19;10.93;;;7.50;;
4508;SDS011;2267;48.816;9.230;2024-02-21T00:17:46;8.53;;;6.77;;
4508;SDS011;2267;48.816;9.230;2024-02-21T00:20:15;13.23;;;8.00;;
4508;SDS011;2267;48.816;9.230;2024-02-21T00:22:41;10.80;;;6.40;;
4508;SDS011;2267;48.816;9.230;2024-02-21T00:25:08;7.73;;;6.60;;
4508;SDS011;2267;48.816;9.230;2024-02-21T00:27:35;11.70;;;7.10;;
4508;SDS011;2267;48.816;9.230;2024-02-21T00:30:03;14.87;;;7.30;;
4508;SDS011;2267;48.816;9.230;2024-02-21T00:32:30;8.80;;;6.80;;
4508;SDS011;2267;48.816;9.230;2024-02-21T00:34:58;10.10;;;6.90;;
4508;SDS011;2267;48.816;9.230;2024-02-21T00:37:25;9.40;;;6.33;;
4508;SDS011;2267;48.816;9.230;2024-02-21T00:39:53;7.20;;;6.20;;
4508;SDS011;2267;48.816;9.230;2024-02-21T00:42:20;9.00;;;6.87;;
4508;SDS011;2267;48.816;9.230;2024-02-21T00:44:47;8.43;;;6.60;;
4508;SDS011;2267;48.816;9.230;2024-02-21T00:47:14;10.43;;;7.47;;
4508;SDS011;2267;48.816;9.230;2024-02-21T00:49:41;11.20;;;7.10;;
4508;SDS011;2267;48.816;9.230;2024-02-21T00:52:08;10.03;;;7.37;;
4508;SDS011;2267;48.816;9.230;2024-02-21T00:54:35;12.83;;;8.10;;
4508;SDS011;2267;48.816;9.230;2024-02-21T00:57:13;10.80;;;6.83;;
4508;SDS011;2267;48.816;9.230;2024-02-21T00:59:39;9.63;;;6.70;;
4508;SDS011;2267;48.816;9.230;2024-02-21T01:02:08;7.87;;;6.30;;
4508;SDS011;2267;48.816;9.230;2024-02-21T01:04:35;10.73;;;7.47;;
4508;SDS011;2267;48.816;9.230;2024-02-21T01:07:02;8.60;;;6.83;;
4508;SDS011;2267;48.816;9.230;2024-02-21T01:09:29;10.07;;;6.93;;
4508;SDS011;2267;48.816;9.230;2024-02-21T01:11:56;9.43;;;6.60;;
4508;SDS011;2267;48.816;9.230;2024-02-21T01:14:23;10.90;;;6.70;;
4508;SDS011;2267;48.816;9.230;2024-02-21T01:16:50;10.10;;;6.47;;
4508;SDS011;2267;48.816;9.230;2024-02-21T01:19:17;10.70;;;6.53;;
4508;SDS011;2267;48.816;9.230;2024-02-21T01:21:44;10.57;;;7.43;;
4508;SDS011;2267;48.816;9.230;2024-02-21T01:24:10;8.00;;;6.80;;
4508;SDS011;2267;48.816;9.230;2024-02-21T01:26:37;9.40;;;7.13;;
4508;SDS011;2267;48.816;9.230;2024-02-21T01:29:04;10.37;;;6.40;;
4508;SDS011;2267;48.816;9.230;2024-02-21T01:31:31;7.07;;;6.40;;
4508;SDS011;2267;48.816;9.230;2024-02-21T01:33:58;8.07;;;6.67;;
4508;SDS011;2267;48.816;9.230;2024-02-21T01:36:25;7.93;;;6.67;;
4508;SDS011;2267;48.816;9.230;2024-02-21T01:38:51;8.33;;;6.40;;
4508;SDS011;2267;48.816;9.230;2024-02-21T01:41:18;10.80;;;6.57;;
4508;SDS011;2267;48.816;9.230;2024-02-21T01:43:45;9.73;;;6.87;;
4508;SDS011;2267;48.816;9.230;2024-02-21T01:46:12;10.03;;;6.20;;
4508;SDS011;2267;48.816;9.230;2024-02-21T01:48:39;9.07;;;6.20;;
4508;SDS011;2267;48.816;9.230;2024-02-21T01:51:06;7.93;;;6.80;;
4508;SDS011;2267;48.816;9.230;2024-02-21T01:53:34;10.60;;;7.57;;
4508;SDS011;2267;48.816;9.230;2024-02-21T01:56:03;10.67;;;7.23;;
4508;SDS011;2267;48.816;9.230;2024-02-21T01:58:32;10.83;;;7.67;;
4508;SDS011;2267;48.816;9.230;2024-02-21T02:01:03;12.77;;;7.97;;
4508;SDS011;2267;48.816;9.230;2024-02-21T02:03:30;8.00;;;6.43;;
4508;SDS011;2267;48.816;9.230;2024-02-21T02:05:57;10.43;;;6.67;;
4508;SDS011;2267;48.816;9.230;2024-02-21T02:08:24;9.63;;;5.93;;
4508;SDS011;2267;48.816;9.230;2024-02-21T02:10:52;12.20;;;6.90;;
4508;SDS011;2267;48.816;9.230;2024-02-21T02:13:19;12.13;;;6.37;;
4508;SDS011;2267;48.816;9.230;2024-02-21T02:15:46;9.43;;;6.50;;
4508;SDS011;2267;48.816;9.230;2024-02-21T02:18:15;9.17;;;6.90;;
4508;SDS011;2267;48.816;9.230;2024-02-21T02:20:43;10.00;;;6.30;;
4508;SDS011;2267;48.816;9.230;2024-02-21T02:25:50;9.20;;;6.87;;
4508;SDS011;2267;48.816;9.230;2024-02-21T02:28:19;11.00;;;6.27;;
4508;SDS011;2267;48.816;9.230;2024-02-21T02:30:46;9.20;;;5.87;;
4508;SDS011;2267;48.816;9.230;2024-02-21T02:33:15;8.60;;;6.13;;
4508;SDS011;2267;48.816;9.230;2024-02-21T02:35:45;9.60;;;6.93;;
4508;SDS011;2267;48.816;9.230;2024-02-21T02:38:12;9.63;;;6.50;;
4508;SDS011;2267;48.816;9.230;2024-02-21T02:40:40;7.13;;;6.40;;
4508;SDS011;2267;48.816;9.230;2024-02-21T02:43:08;9.37;;;6.83;;
4508;SDS011;2267;48.816;9.230;2024-02-21T02:45:35;10.00;;;6.47;;
4508;SDS011;2267;48.816;9.230;2024-02-21T02:48:02;9.77;;;5.93;;
4508;SDS011;2267;48.816;9.230;2024-02-21T02:50:29;9.60;;;6.07;;
4508;SDS011;2267;48.816;9.230;2024-02-21T02:52:57;8.37;;;6.07;;
4508;SDS011;2267;48.816;9.230;2024-02-21T02:55:24;8.03;;;6.30;;
4508;SDS011;2267;48.816;9.230;2024-02-21T02:57:52;8.50;;;6.50;;
4508;SDS011;2267;48.816;9.230;2024-02-21T03:00:19;10.20;;;7.60;;
4508;SDS011;2267;48.816;9.230;2024-02-21T03:02:48;8.00;;;6.40;;
4508;SDS011;2267;48.816;9.230;2024-02-21T03:05:19;11.33;;;6.93;;
4508;SDS011;2267;48.816;9.230;2024-02-21T03:07:47;8.00;;;6.73;;
4508;SDS011;2267;48.816;9.230;2024-02-21T03:10:15;11.20;;;7.00;;
4508;SDS011;2267;48.816;9.230;2024-02-21T03:12:44;7.90;;;6.40;;
4508;SDS011;2267;48.816;9.230;2024-02-21T03:15:11;7.33;;;5.83;;
4508;SDS011;2267;48.816;9.230;2024-02-21T03:17:39;9.53;;;7.30;;
4508;SDS011;2267;48.816;9.230;2024-02-21T03:20:07;11.00;;;6.73;;
4508;SDS011;2267;48.816;9.230;2024-02-21T03:22:39;9.00;;;6.60;;
4508;SDS011;2267;48.816;9.230;2024-02-21T03:25:07;9.87;;;6.80;;
4508;SDS011;2267;48.816;9.230;2024-02-21T03:27:35;10.53;;;7.37;;
4508;SDS011;2267;48.816;9.230;2024-02-21T03:30:02;13.70;;;7.10;;
4508;SDS011;2267;48.816;9.230;2024-02-21T03:32:30;8.60;;;6.40;;
4508;SDS011;2267;48.816;9.230;2024-02-21T03:34:57;7.53;;;6.83;;
4508;SDS011;2267;48.816;9.230;2024-02-21T03:37:24;7.23;;;6.30;;
4508;SDS011;2267;48.816;9.230;2024-02-21T03:39:51;8.67;;;6.50;;
4508;SDS011;2267;48.816;9.230;2024-02-21T03:42:18;9.20;;;7.50;;
4508;SDS011;2267;48.816;9.230;2024-02-21T03:44:45;8.77;;;7.10;;
4508;SDS011;2267;48.816;9.230;2024-02-21T03:47:11;9.40;;;6.87;;
4508;SDS011;2267;48.816;9.230;2024-02-21T03:49:38;8.03;;;6.10;;
4508;SDS011;2267;48.816;9.230;2024-02-21T03:52:05;9.67;;;6.77;;
4508;SDS011;2267;48.816;9.230;2024-02-21T03:54:32;8.07;;;6.00;;
4508;SDS011;2267;48.816;9.230;2024-02-21T03:56:59;8.83;;;6.73;;
4508;SDS011;2267;48.816;9.230;2024-02-21T03:59:26;8.13;;;6.00;;
4508;SDS011;2267;48.816;9.230;2024-02-21T04:01:53;7.63;;;5.83;;
4508;SDS011;2267;48.816;9.230;2024-02-21T04:04:20;7.37;;;6.30;;
4508;SDS011;2267;48.816;9.230;2024-02-21T04:06:48;8.53;;;6.13;;
4508;SDS011;2267;48.816;9.230;2024-02-21T04:09:15;9.23;;;6.07;;
4508;SDS011;2267;48.816;9.230;2024-02-21T04:11:42;10.30;;;6.13;;
4508;SDS011;2267;48.816;9.230;2024-02-21T04:14:09;6.10;;;5.40;;
4508;SDS011;2267;48.816;9.230;2024-02-21T04:16:37;6.73;;;5.80;;
4508;SDS011;2267;48.816;9.230;2024-02-21T04:19:05;6.73;;;5.10;;
4508;SDS011;2267;48.816;9.230;2024-02-21T04:21:33;7.33;;;5.30;;
4508;SDS011;2267;48.816;9.230;2024-02-21T04:23:59;9.70;;;5.60;;
4508;SDS011;2267;48.816;9.230;2024-02-21T04:26:28;9.20;;;6.37;;
4508;SDS011;2267;48.816;9.230;2024-02-21T04:28:55;7.70;;;5.20;;
4508;SDS011;2267;48.816;9.230;2024-02-21T04:31:22;8.27;;;5.90;;
4508;SDS011;2267;48.816;9.230;2024-02-21T04:33:49;7.37;;;5.80;;
4508;SDS011;2267;48.816;9.230;2024-02-21T04:36:16;7.73;;;5.60;;
4508;SDS011;2267;48.816;9.230;2024-02-21T04:38:43;9.37;;;5.73;;
4508;SDS011;2267;48.816;9.230;2024-02-21T04:41:12;8.97;;;6.13;;
4508;SDS011;2267;48.816;9.230;2024-02-21T04:43:39;5.70;;;4.77;;
4508;SDS011;2267;48.816;9.230;2024-02-21T04:46:07;8.80;;;6.60;;
4508;SDS011;2267;48.816;9.230;2024-02-21T04:48:34;7.97;;;6.13;;
4508;SDS011;2267;48.816;9.230;2024-02-21T04:51:00;10.80;;;6.50;;
4508;SDS011;2267;48.816;9.230;2024-02-21T04:53:27;10.33;;;6.40;;
4508;SDS011;2267;48.816;9.230;2024-02-21T04:55:54;7.80;;;5.57;;
4508;SDS011;2267;48.816;9.230;2024-02-21T04:58:21;9.73;;;7.27;;
4508;SDS011;2267;48.816;9.230;2024-02-21T05:00:48;10.30;;;7.40;;
4508;SDS011;2267;48.816;9.230;2024-02-21T05:03:15;9.33;;;5.80;;
4508;SDS011;2267;48.816;9.230;2024-02-21T05:05:42;8.33;;;5.87;;
4508;SDS011;2267;48.816;9.230;2024-02-21T05:08:10;7.87;;;5.87;;
4508;SDS011;2267;48.816;9.230;2024-02-21T05:10:37;9.53;;;5.47;;
4508;SDS011;2267;48.816;9.230;2024-02-21T05:13:03;8.83;;;5.03;;
4508;SDS011;2267;48.816;9.230;2024-02-21T05:15:31;7.47;;;5.23;;
4508;SDS011;2267;48.816;9.230;2024-02-21T05:17:58;8.03;;;3.60;;
4508;SDS011;2267;48.816;9.230;2024-02-21T05:20:25;5.70;;;4.53;;
4508;SDS011;2267;48.816;9.230;2024-02-21T05:22:52;5.00;;;4.50;;
4508;SDS011;2267;48.816;9.230;2024-02-21T05:25:18;6.33;;;4.70;;
4508;SDS011;2267;48.816;9.230;2024-02-21T05:27:45;11.40;;;5.97;;
4508;SDS011;2267;48.816;9.230;2024-02-21T05:30:12;12.50;;;5.30;;
4508;SDS011;2267;48.816;9.230;2024-02-21T05:32:39;9.87;;;4.67;;
4508;SDS011;2267;48.816;9.230;2024-02-21T05:35:07;5.23;;;4.60;;
4508;SDS011;2267;48.816;9.230;2024-02-21T05:37:34;6.43;;;4.87;;
4508;SDS011;2267;48.816;9.230;2024-02-21T05:40:01;6.27;;;4.63;;
4508;SDS011;2267;48.816;9.230;2024-02-21T05:42:28;5.90;;;4.33;;
4508;SDS011;2267;48.816;9.230;2024-02-21T05:44:55;6.70;;;5.50;;
4508;SDS011;2267;48.816;9.230;2024-02-21T05:47:22;7.23;;;5.03;;
4508;SDS011;2267;48.816;9.230;2024-02-21T05:49:49;6.60;;;4.73;;
4508;SDS011;2267;48.816;9.230;2024-02-21T05:52:19;8.37;;;4.80;;
4508;SDS011;2267;48.816;9.230;2024-02-21T05:54:46;9.20;;;5.10;;
4508;SDS011;2267;48.816;9.230;2024-02-21T05:57:19;5.67;;;4.33;;
4508;SDS011;2267;48.816;9.230;2024-02-21T05:59:46;8.43;;;6.07;;
4508;SDS011;2267;48.816;9.230;2024-02-21T06:02:13;5.57;;;4.10;;
4508;SDS011;2267;48.816;9.230;2024-02-21T06:04:40;8.90;;;5.17;;
4508;SDS011;2267;48.816;9.230;2024-02-21T06:07:09;7.60;;;5.80;;
4508;SDS011;2267;48.816;9.230;2024-02-21T06:09:36;8.60;;;6.10;;
4508;SDS011;2267;48.816;9.230;2024-02-21T06:12:03;8.53;;;5.30;;
4508;SDS011;2267;48.816;9.230;2024-02-21T06:14:30;6.13;;;5.53;;
4508;SDS011;2267;48.816;9.230;2024-02-21T06:16:56;11.03;;;6.13;;
4508;SDS011;2267;48.816;9.230;2024-02-21T06:19:23;7.80;;;6.07;;
4508;SDS011;2267;48.816;9.230;2024-02-21T06:21:50;9.17;;;6.10;;
4508;SDS011;2267;48.816;9.230;2024-02-21T06:24:17;7.30;;;5.87;;
4508;SDS011;2267;48.816;9.230;2024-02-21T06:26:44;8.80;;;5.87;;
4508;SDS011;2267;48.816;9.230;2024-02-21T06:29:11;8.90;;;5.80;;
4508;SDS011;2267;48.816;9.230;2024-02-21T06:31:40;7.87;;;6.17;;
4508;SDS011;2267;48.816;9.230;2024-02-21T06:34:07;9.90;;;5.47;;
4508;SDS011;2267;48.816;9.230;2024-02-21T06:36:34;9.07;;;5.13;;
4508;SDS011;2267;48.816;9.230;2024-02-21T06:39:01;8.83;;;5.37;;
4508;SDS011;2267;48.816;9.230;2024-02-21T06:41:27;9.47;;;5.60;;
4508;SDS011;2267;48.816;9.230;2024-02-21T06:43:56;10.13;;;6.10;;
4508;SDS011;2267;48.816;9.230;2024-02-21T06:46:26;5.90;;;4.50;;
4508;SDS011;2267;48.816;9.230;2024-02-21T06:48:55;6.10;;;5.40;;
4508;SDS011;2267;48.816;9.230;2024-02-21T06:51:24;7.80;;;4.90;;
4508;SDS011;2267;48.816;9.230;2024-02-21T06:53:54;9.07;;;5.27;;
4508;SDS011;2267;48.816;9.230;2024-02-21T06:56:23;9.30;;;5.30;;
4508;SDS011;2267;48.816;9.230;2024-02-21T06:58:55;10.53;;;5.17;;
4508;SDS011;2267;48.816;9.230;2024-02-21T07:01:22;6.70;;;4.80;;
4508;SDS011;2267;48.816;9.230;2024-02-21T07:03:50;12.63;;;5.70;;
4508;SDS011;2267;48.816;9.230;2024-02-21T07:06:16;8.70;;;5.53;;
4508;SDS011;2267;48.816;9.230;2024-02-21T07:08:44;4.77;;;3.90;;
4508;SDS011;2267;48.816;9.230;2024-02-21T07:11:10;10.27;;;4.00;;
4508;SDS011;2267;48.816;9.230;2024-02-21T07:13:37;5.83;;;4.60;;
4508;SDS011;2267;48.816;9.230;2024-02-21T07:16:05;8.50;;;5.13;;
4508;SDS011;2267;48.816;9.230;2024-02-21T07:18:32;8.00;;;5.30;;
4508;SDS011;2267;48.816;9.230;2024-02-21T07:21:00;6.40;;;4.73;;
4508;SDS011;2267;48.816;9.230;2024-02-21T07:23:26;9.93;;;5.37;;
4508;SDS011;2267;48.816;9.230;2024-02-21T07:25:53;7.23;;;5.63;;
4508;SDS011;2267;48.816;9.230;2024-02-21T07:28:20;10.80;;;5.60;;
4508;SDS011;2267;48.816;9.230;2024-02-21T07:30:47;6.87;;;4.20;;
4508;SDS011;2267;48.816;9.230;2024-02-21T07:33:14;6.50;;;4.23;;
4508;SDS011;2267;48.816;9.230;2024-02-21T07:35:41;7.23;;;5.47;;
4508;SDS011;2267;48.816;9.230;2024-02-21T07:38:11;7.60;;;5.33;;
4508;SDS011;2267;48.816;9.230;2024-02-21T07:40:39;8.90;;;5.50;;
4508;SDS011;2267;48.816;9.230;2024-02-21T07:43:06;7.10;;;5.70;;
4508;SDS011;2267;48.816;9.230;2024-02-21T07:45:33;9.80;;;5.90;;
4508;SDS011;2267;48.816;9.230;2024-02-21T07:48:00;8.20;;;5.40;;
4508;SDS011;2267;48.816;9.230;2024-02-21T07:50:27;8.83;;;5.20;;
4508;SDS011;2267;48.816;9.230;2024-02-21T07:52:54;6.60;;;5.47;;
4508;SDS011;2267;48.816;9.230;2024-02-21T07:55:21;13.83;;;6.00;;
4508;SDS011;2267;48.816;9.230;2024-02-21T07:57:48;11.00;;;6.77;;
4508;SDS011;2267;48.816;9.230;2024-02-21T08:00:15;11.70;;;6.73;;
4508;SDS011;2267;48.816;9.230;2024-02-21T08:02:47;10.60;;;6.10;;
4508;SDS011;2267;48.816;9.230;2024-02-21T08:05:15;12.20;;;6.40;;
4508;SDS011;2267;48.816;9.230;2024-02-21T08:07:42;11.63;;;6.10;;
4508;SDS011;2267;48.816;9.230;2024-02-21T08:10:09;10.67;;;6.03;;
4508;SDS011;2267;48.816;9.230;2024-02-21T08:12:36;8.87;;;5.40;;
4508;SDS011;2267;48.816;9.230;2024-02-21T08:15:03;9.07;;;5.20;;
4508;SDS011;2267;48.816;9.230;2024-02-21T08:17:30;11.90;;;6.63;;
4508;SDS011;2267;48.816;9.230;2024-02-21T08:19:57;9.13;;;5.90;;
4508;SDS011;2267;48.816;9.230;2024-02-21T08:22:24;9.80;;;5.50;;
4508;SDS011;2267;48.816;9.230;2024-02-21T08:24:52;7.33;;;4.97;;
4508;SDS011;2267;48.816;9.230;2024-02-21T08:27:19;6.83;;;4.60;;
4508;SDS011;2267;48.816;9.230;2024-02-21T08:29:46;9.17;;;4.57;;
4508;SDS011;2267;48.816;9.230;2024-02-21T08:32:13;7.30;;;4.53;;
4508;SDS011;2267;48.816;9.230;2024-02-21T08:34:40;7.77;;;4.30;;
4508;SDS011;2267;48.816;9.230;2024-02-21T08:37:07;6.70;;;4.97;;
4508;SDS011;2267;48.816;9.230;2024-02-21T08:39:34;6.00;;;3.97;;
4508;SDS011;2267;48.816;9.230;2024-02-21T08:42:01;6.47;;;4.13;;
4508;SDS011;2267;48.816;9.230;2024-02-21T08:44:28;4.37;;;3.03;;
4508;SDS011;2267;48.816;9.230;2024-02-21T08:46:55;5.87;;;3.70;;
4508;SDS011;2267;48.816;9.230;2024-02-21T08:49:23;7.63;;;4.30;;
4508;SDS011;2267;48.816;9.230;2024-02-21T08:51:59;8.33;;;3.90;;
4508;SDS011;2267;48.816;9.230;2024-02-21T08:54:26;4.90;;;3.73;;
4508;SDS011;2267;48.816;9.230;2024-02-21T08:56:53;6.00;;;4.37;;
4508;SDS011;2267;48.816;9.230;2024-02-21T08:59:20;6.37;;;3.87;;
4508;SDS011;2267;48.816;9.230;2024-02-21T09:01:47;6.10;;;3.90;;
4508;SDS011;2267;48.816;9.230;2024-02-21T09:04:14;7.93;;;3.63;;
4508;SDS011;2267;48.816;9.230;2024-02-21T09:06:42;5.03;;;3.97;;
4508;SDS011;2267;48.816;9.230;2024-02-21T09:09:09;8.77;;;4.30;;
4508;SDS011;2267;48.816;9.230;2024-02-21T09:11:36;6.50;;;3.80;;
4508;SDS011;2267;48.816;9.230;2024-02-21T09:14:03;7.17;;;3.77;;
4508;SDS011;2267;48.816;9.230;2024-02-21T09:16:33;5.97;;;4.13;;
4508;SDS011;2267;48.816;9.230;2024-02-21T09:19:00;5.43;;;3.43;;
4508;SDS011;2267;48.816;9.230;2024-02-21T09:21:27;5.50;;;3.33;;
4508;SDS011;2267;48.816;9.230;2024-02-21T09:23:54;5.23;;;3.93;;
4508;SDS011;2267;48.816;9.230;2024-02-21T09:26:25;5.07;;;3.87;;
4508;SDS011;2267;48.816;9.230;2024-02-21T09:28:52;6.17;;;3.90;;
4508;SDS011;2267;48.816;9.230;2024-02-21T09:31:19;6.27;;;4.53;;
4508;SDS011;2267;48.816;9.230;2024-02-21T09:33:46;6.93;;;3.67;;
4508;SDS011;2267;48.816;9.230;2024-02-21T09:36:13;5.40;;;3.70;;
4508;SDS011;2267;48.816;9.230;2024-02-21T09:38:41;7.07;;;4.50;;
4508;SDS011;2267;48.816;9.230;2024-02-21T09:41:15;5.43;;;3.40;;
4508;SDS011;2267;48.816;9.230;2024-02-21T09:43:51;6.03;;;4.23;;
4508;SDS011;2267;48.816;9.230;2024-02-21T09:46:21;7.23;;;3.60;;
4508;SDS011;2267;48.816;9.230;2024-02-21T09:51:32;6.80;;;3.90;;
4508;SDS011;2267;48.816;9.230;2024-02-21T09:54:01;7.47;;;4.47;;
4508;SDS011;2267;48.816;9.230;2024-02-21T09:56:41;7.30;;;4.03;;
4508;SDS011;2267;48.816;9.230;2024-02-21T09:59:08;5.57;;;3.73;;
4508;SDS011;2267;48.816;9.230;2024-02-21T10:01:37;4.83;;;3.00;;
4508;SDS011;2267;48.816;9.230;2024-02-21T10:04:04;7.00;;;3.27;;
4508;SDS011;2267;48.816;9.230;2024-02-21T10:06:32;5.90;;;3.43;;
4508;SDS011;2267;48.816;9.230;2024-02-21T10:08:59;5.83;;;3.50;;
4508;SDS011;2267;48.816;9.230;2024-02-21T10:11:26;6.40;;;3.30;;
4508;SDS011;2267;48.816;9.230;2024-02-21T10:14:06;4.73;;;3.03;;
4508;SDS011;2267;48.816;9.230;2024-02-21T10:16:33;4.43;;;2.37;;
4508;SDS011;2267;48.816;9.230;2024-02-21T10:19:01;5.40;;;3.50;;
4508;SDS011;2267;48.816;9.230;2024-02-21T10:21:30;5.60;;;3.30;;
4508;SDS011;2267;48.816;9.230;2024-02-21T10:23:57;4.63;;;3.53;;
4508;SDS011;2267;48.816;9.230;2024-02-21T10:26:23;5.23;;;2.80;;
4508;SDS011;2267;48.816;9.230;2024-02-21T10:28:50;7.43;;;3.90;;
4508;SDS011;2267;48.816;9.230;2024-02-21T10:31:25;5.93;;;3.50;;
4508;SDS011;2267;48.816;9.230;2024-02-21T10:33:57;7.20;;;3.07;;
4508;SDS011;2267;48.816;9.230;2024-02-21T10:36:25;5.17;;;3.17;;
4508;SDS011;2267;48.816;9.230;2024-02-21T10:38:52;3.97;;;2.80;;
4508;SDS011;2267;48.816;9.230;2024-02-21T10:41:21;7.70;;;3.60;;
4508;SDS011;2267;48.816;9.230;2024-02-21T10:43:50;3.27;;;2.60;;
4508;SDS011;2267;48.816;9.230;2024-02-21T10:46:21;6.10;;;3.40;;
4508;SDS011;2267;48.816;9.230;2024-02-21T10:48:55;6.07;;;3.13;;
4508;SDS011;2267;48.816;9.230;2024-02-21T10:51:33;4.50;;;3.00;;
4508;SDS011;2267;48.816;9.230;2024-02-21T10:54:10;4.40;;;2.67;;
4508;SDS011;2267;48.816;9.230;2024-02-21T10:56:49;4.30;;;2.50;;
4508;SDS011;2267;48.816;9.230;2024-02-21T10:59:17;5.37;;;2.90;;
4508;SDS011;2267;48.816;9.230;2024-02-21T11:01:45;5.03;;;3.00;;
4508;SDS011;2267;48.816;9.230;2024-02-21T11:04:13;4.90;;;2.60;;
4508;SDS011;2267;48.816;9.230;2024-02-21T11:06:41;3.93;;;2.50;;
4508;SDS011;2267;48.816;9.230;2024-02-21T11:09:09;3.97;;;2.50;;
4508;SDS011;2267;48.816;9.230;2024-02-21T11:11:38;5.00;;;2.80;;
4508;SDS011;2267;48.816;9.230;2024-02-21T11:16:43;4.50;;;2.77;;
4508;SDS011;2267;48.816;9.230;2024-02-21T11:21:53;5.10;;;3.07;;
4508;SDS011;2267;48.816;9.230;2024-02-21T11:29:44;6.50;;;3.10;;
4508;SDS011;2267;48.816;9.230;2024-02-21T11:32:17;5.43;;;2.70;;
4508;SDS011;2267;48.816;9.230;2024-02-21T11:34:53;3.30;;;2.27;;
4508;SDS011;2267;48.816;9.230;2024-02-21T11:37:21;3.50;;;2.00;;
4508;SDS011;2267;48.816;9.230;2024-02-21T11:39:51;4.50;;;2.87;;
4508;SDS011;2267;48.816;9.230;2024-02-21T11:42:19;3.63;;;2.67;;
4508;SDS011;2267;48.816;9.230;2024-02-21T11:44:46;5.70;;;2.40;;
4508;SDS011;2267;48.816;9.230;2024-02-21T11:47:13;4.67;;;2.90;;
4508;SDS011;2267;48.816;9.230;2024-02-21T11:49:47;4.23;;;2.27;;
4508;SDS011;2267;48.816;9.230;2024-02-21T11:52:16;3.97;;;2.20;;
4508;SDS011;2267;48.816;9.230;2024-02-21T11:54:45;3.53;;;2.40;;
4508;SDS011;2267;48.816;9.230;2024-02-21T11:57:12;6.30;;;3.80;;
4508;SDS011;2267;48.816;9.230;2024-02-21T11:59:42;5.70;;;2.87;;
4508;SDS011;2267;48.816;9.230;2024-02-21T12:02:11;4.37;;;2.67;;
4508;SDS011;2267;48.816;9.230;2024-02-21T12:04:38;4.30;;;2.50;;
4508;SDS011;2267;48.816;9.230;2024-02-21T12:07:05;4.73;;;2.87;;
4508;SDS011;2267;48.816;9.230;2024-02-21T12:09:33;3.80;;;2.40;;
4508;SDS011;2267;48.816;9.230;2024-02-21T12:12:02;3.40;;;2.53;;
4508;SDS011;2267;48.816;9.230;2024-02-21T12:14:33;3.97;;;1.80;;
4508;SDS011;2267;48.816;9.230;2024-02-21T12:17:01;3.70;;;2.37;;
4508;SDS011;2267;48.816;9.230;2024-02-21T12:19:34;6.97;;;2.73;;
4508;SDS011;2267;48.816;9.230;2024-02-21T12:22:01;4.70;;;2.87;;
4508;SDS011;2267;48.816;9.230;2024-02-21T12:24:32;3.77;;;2.80;;
4508;SDS011;2267;48.816;9.230;2024-02-21T12:27:00;4.67;;;2.50;;
4508;SDS011;2267;48.816;9.230;2024-02-21T12:29:30;3.70;;;2.60;;
4508;SDS011;2267;48.816;9.230;2024-02-21T12:31:57;3.80;;;2.40;;
4508;SDS011;2267;48.816;9.230;2024-02-21T12:34:24;4.07;;;2.40;;
4508;SDS011;2267;48.816;9.230;2024-02-21T12:37:10;3.37;;;2.33;;
4508;SDS011;2267;48.816;9.230;2024-02-21T12:39:39;4.40;;;2.53;;
4508;SDS011;2267;48.816;9.230;2024-02-21T12:42:06;4.17;;;2.50;;
4508;SDS011;2267;48.816;9.230;2024-02-21T12:44:33;5.50;;;2.10;;
4508;SDS011;2267;48.816;9.230;2024-02-21T12:47:00;5.30;;;2.37;;
4508;SDS011;2267;48.816;9.230;2024-02-21T12:49:27;5.00;;;1.87;;
4508;SDS011;2267;48.816;9.230;2024-02-21T12:51:56;2.87;;;1.80;;
4508;SDS011;2267;48.816;9.230;2024-02-21T12:54:23;3.30;;;2.43;;
4508;SDS011;2267;48.816;9.230;2024-02-21T12:56:50;3.90;;;2.10;;
4508;SDS011;2267;48.816;9.230;2024-02-21T12:59:17;3.40;;;2.17;;
4508;SDS011;2267;48.816;9.230;2024-02-21T13:01:44;3.70;;;2.30;;
4508;SDS011;2267;48.816;9.230;2024-02-21T13:04:11;3.30;;;1.77;;
4508;SDS011;2267;48.816;9.230;2024-02-21T13:06:38;2.40;;;1.60;;
4508;SDS011;2267;48.816;9.230;2024-02-21T13:09:05;2.40;;;1.70;;
4508;SDS011;2267;48.816;9.230;2024-02-21T13:11:34;3.40;;;1.80;;
4508;SDS011;2267;48.816;9.230;2024-02-21T13:14:01;4.30;;;1.30;;
4508;SDS011;2267;48.816;9.230;2024-02-21T13:16:28;4.30;;;2.07;;
4508;SDS011;2267;48.816;9.230;2024-02-21T13:18:55;3.07;;;2.13;;
4508;SDS011;2267;48.816;9.230;2024-02-21T13:21:22;2.40;;;1.70;;
4508;SDS011;2267;48.816;9.230;2024-02-21T13:23:49;3.13;;;1.90;;
4508;SDS011;2267;48.816;9.230;2024-02-21T13:26:16;4.53;;;2.23;;
4508;SDS011;2267;48.816;9.230;2024-02-21T13:28:43;2.87;;;1.90;;
4508;SDS011;2267;48.816;9.230;2024-02-21T13:31:11;3.23;;;2.10;;
4508;SDS011;2267;48.816;9.230;2024-02-21T13:33:38;2.53;;;1.60;;
4508;SDS011;2267;48.816;9.230;2024-02-21T13:36:05;3.00;;;2.00;;
4508;SDS011;2267;48.816;9.230;2024-02-21T13:38:32;2.80;;;1.60;;
4508;SDS011;2267;48.816;9.230;2024-02-21T13:40:59;2.40;;;1.73;;
4508;SDS011;2267;48.816;9.230;2024-02-21T13:43:27;2.40;;;1.80;;
4508;SDS011;2267;48.816;9.230;2024-02-21T13:45:55;2.90;;;1.80;;
4508;SDS011;2267;48.816;9.230;2024-02-21T13:48:24;5.07;;;2.47;;
4508;SDS011;2267;48.816;9.230;2024-02-21T13:50:52;1.97;;;1.43;;
4508;SDS011;2267;48.816;9.230;2024-02-21T13:53:19;3.07;;;1.77;;
4508;SDS011;2267;48.816;9.230;2024-02-21T13:55:47;2.20;;;1.50;;
4508;SDS011;2267;48.816;9.230;2024-02-21T13:58:13;3.87;;;1.67;;
4508;SDS011;2267;48.816;9.230;2024-02-21T14:00:41;3.40;;;1.70;;
4508;SDS011;2267;48.816;9.230;2024-02-21T14:03:08;2.60;;;1.83;;
4508;SDS011;2267;48.816;9.230;2024-02-21T14:05:36;2.67;;;1.70;;
4508;SDS011;2267;48.816;9.230;2024-02-21T14:08:07;2.90;;;1.87;;
4508;SDS011;2267;48.816;9.230;2024-02-21T14:10:34;3.17;;;1.60;;
4508;SDS011;2267;48.816;9.230;2024-02-21T14:13:01;6.10;;;1.80;;
4508;SDS011;2267;48.816;9.230;2024-02-21T14:15:28;2.20;;;1.33;;
4508;SDS011;2267;48.816;9.230;2024-02-21T14:17:54;2.43;;;1.70;;
4508;SDS011;2267;48.816;9.230;2024-02-21T14:20:22;2.83;;;1.70;;
4508;SDS011;2267;48.816;9.230;2024-02-21T14:22:49;2.50;;;1.67;;
4508;SDS011;2267;48.816;9.230;2024-02-21T14:25:16;2.70;;;1.80;;
4508;SDS011;2267;48.816;9.230;2024-02-21T14:27:43;2.73;;;1.60;;
4508;SDS011;2267;48.816;9.230;2024-02-21T14:30:10;2.97;;;1.70;;
4508;SDS011;2267;48.816;9.230;2024-02-21T14:32:37;3.60;;;1.70;;
4508;SDS011;2267;48.816;9.230;2024-02-21T14:35:06;4.20;;;2.10;;
4508;SDS011;2267;48.816;9.230;2024-02-21T14:37:33;2.73;;;1.73;;
4508;SDS011;2267;48.816;9.230;2024-02-21T14:40:00;3.80;;;2.40;;
4508;SDS011;2267;48.816;9.230;2024-02-21T14:42:27;2.57;;;1.60;;
4508;SDS011;2267;48.816;9.230;2024-02-21T14:44:54;5.10;;;2.87;;
4508;SDS011;2267;48.816;9.230;2024-02-21T14:47:30;5.77;;;2.70;;
4508;SDS011;2267;48.816;9.230;2024-02-21T14:49:58;4.40;;;2.63;;
4508;SDS011;2267;48.816;9.230;2024-02-21T14:52:25;4.13;;;2.80;;
4508;SDS011;2267;48.816;9.230;2024-02-21T14:54:54;5.10;;;2.20;;
4508;SDS011;2267;48.816;9.230;2024-02-21T14:57:21;3.50;;;2.10;;
4508;SDS011;2267;48.816;9.230;2024-02-21T14:59:48;2.80;;;2.03;;
4508;SDS011;2267;48.816;9.230;2024-02-21T15:02:16;3.00;;;2.00;;
4508;SDS011;2267;48.816;9.230;2024-02-21T15:04:43;3.53;;;2.90;;
4508;SDS011;2267;48.816;9.230;2024-02-21T15:07:10;2.73;;;2.43;;
4508;SDS011;2267;48.816;9.230;2024-02-21T15:09:37;2.90;;;2.27;;
4508;SDS011;2267;48.816;9.230;2024-02-21T15:12:04;4.00;;;1.93;;
4508;SDS011;2267;48.816;9.230;2024-02-21T15:14:32;3.07;;;2.40;;
4508;SDS011;2267;48.816;9.230;2024-02-21T15:16:59;2.97;;;2.27;;
4508;SDS011;2267;48.816;9.230;2024-02-21T15:19:26;3.40;;;2.33;;
4508;SDS011;2267;48.816;9.230;2024-02-21T15:21:53;2.67;;;2.00;;
4508;SDS011;2267;48.816;9.230;2024-02-21T15:24:20;3.53;;;2.10;;
4508;SDS011;2267;48.816;9.230;2024-02-21T15:26:47;2.23;;;1.90;;
4508;SDS011;2267;48.816;9.230;2024-02-21T15:29:14;2.70;;;2.10;;
4508;SDS011;2267;48.816;9.230;2024-02-21T15:31:41;2.70;;;2.20;;